createdAt,value
2022-08-05T00:01:20.334Z,953.41
2022-08-05T00:04:05.127Z,953.36
2022-08-05T00:06:58.669Z,953.32
2022-08-05T00:09:59.548Z,953.29
2022-08-05T00:12:59.215Z,953.29
2022-08-05T00:16:00.276Z,953.32
2022-08-05T00:18:59.428Z,953.22
2022-08-05T00:21:58.309Z,953.22
2022-08-05T00:24:59.304Z,953.09
2022-08-05T00:27:58.595Z,953.12
2022-08-05T00:31:02.910Z,953.11
2022-08-05T00:34:54.080Z,953.08
2022-08-05T00:37:10.761Z,953.08
2022-08-05T00:39:59.432Z,953.03
2022-08-05T00:42:58.364Z,953.06
2022-08-05T00:45:59.122Z,953.02
2022-08-05T00:48:58.637Z,953.07
2022-08-05T00:51:58.298Z,953.03
2022-08-05T00:54:58.939Z,953.02
2022-08-05T00:57:59.389Z,953.05
2022-08-05T01:00:58.795Z,953.01
2022-08-05T01:03:59.248Z,953.05
2022-08-05T01:06:59.330Z,953.06
2022-08-05T01:09:59.339Z,953.0
2022-08-05T01:13:05.289Z,952.99
2022-08-05T01:15:58.725Z,953.05
2022-08-05T01:18:58.643Z,953.03
2022-08-05T01:21:59.096Z,953.08
2022-08-05T01:24:59.158Z,953.07
2022-08-05T01:27:58.699Z,953.0
2022-08-05T01:30:59.169Z,953.0
2022-08-05T01:33:59.045Z,953.0
2022-08-05T01:37:00.667Z,953.09
2022-08-05T01:39:59.443Z,952.99
2022-08-05T01:42:59.359Z,953.06
2022-08-05T01:46:07.310Z,953.1
2022-08-05T01:48:58.248Z,953.09
2022-08-05T01:51:59.400Z,953.17
2022-08-05T01:54:58.429Z,953.2
2022-08-05T01:58:10.896Z,953.23
2022-08-05T02:00:59.105Z,953.25
2022-08-05T02:03:58.054Z,953.24
2022-08-05T02:06:59.061Z,953.21
2022-08-05T02:10:00.267Z,953.27
2022-08-05T02:12:58.853Z,953.35
2022-08-05T02:15:59.420Z,953.37
2022-08-05T02:18:59.470Z,953.43
2022-08-05T02:21:58.787Z,953.51
2022-08-05T02:24:59.992Z,953.52
2022-08-05T02:28:00.464Z,953.67
2022-08-05T02:30:58.690Z,953.52
2022-08-05T02:33:59.435Z,953.49
2022-08-05T02:36:59.439Z,953.51
2022-08-05T02:39:59.486Z,953.49
2022-08-05T02:42:59.511Z,953.55
2022-08-05T02:45:58.289Z,953.59
2022-08-05T02:48:59.525Z,953.62
2022-08-05T02:52:04.520Z,953.74
2022-08-05T02:55:01.884Z,953.73
2022-08-05T02:58:11.989Z,953.75
2022-08-05T03:00:59.160Z,953.83
2022-08-05T03:04:02.059Z,953.77
2022-08-05T03:06:59.260Z,953.85
2022-08-05T03:09:59.810Z,953.85
2022-08-05T03:15:58.909Z,953.93
2022-08-05T03:18:58.937Z,953.86
2022-08-05T03:21:58.909Z,953.81
2022-08-05T03:24:58.943Z,953.84
2022-08-05T03:28:00.602Z,953.81
2022-08-05T03:30:58.821Z,953.84
2022-08-05T03:33:59.183Z,953.79
2022-08-05T03:36:59.004Z,953.87
2022-08-05T03:40:01.027Z,953.9
2022-08-05T03:42:58.653Z,953.87
2022-08-05T03:45:59.345Z,953.91
2022-08-05T03:48:58.929Z,953.85
2022-08-05T03:52:38.609Z,953.93
2022-08-05T03:55:52.989Z,953.87
2022-08-05T03:57:58.878Z,953.88
2022-08-05T04:00:59.983Z,953.83
2022-08-05T04:04:10.051Z,953.88
2022-08-05T04:06:58.325Z,953.94
2022-08-05T04:09:59.658Z,953.87
2022-08-05T04:12:59.318Z,953.97
2022-08-05T04:16:04.290Z,954.14
2022-08-05T04:18:58.738Z,954.16
2022-08-05T04:22:09.009Z,954.21
2022-08-05T04:24:59.196Z,954.16
2022-08-05T04:28:00.649Z,954.33
2022-08-05T04:30:58.965Z,954.34
2022-08-05T04:34:33.001Z,954.39
2022-08-05T04:36:58.763Z,954.51
2022-08-05T04:39:59.079Z,954.59
2022-08-05T04:42:58.514Z,954.63
2022-08-05T04:45:59.389Z,954.5
2022-08-05T04:48:58.944Z,954.52
2022-08-05T04:52:00.414Z,954.6
2022-08-05T04:54:59.684Z,954.69
2022-08-05T04:57:58.844Z,954.6
2022-08-05T05:00:59.534Z,954.66
2022-08-05T05:03:59.513Z,954.63
2022-08-05T05:06:59.154Z,954.6
2022-08-05T05:09:59.648Z,954.48
2022-08-05T05:12:58.444Z,954.53
2022-08-05T05:16:02.279Z,954.63
2022-08-05T05:19:18.996Z,954.67
2022-08-05T05:21:59.453Z,954.53
2022-08-05T05:25:00.371Z,954.6
2022-08-05T05:27:59.299Z,954.65
2022-08-05T05:30:59.229Z,954.86
2022-08-05T05:34:01.875Z,955.13
2022-08-05T05:36:58.760Z,955.17
2022-08-05T05:39:59.218Z,955.2
2022-08-05T05:42:59.175Z,955.23
2022-08-05T05:45:59.999Z,955.28
2022-08-05T05:48:58.983Z,955.44
2022-08-05T05:51:59.215Z,955.58
2022-08-05T05:54:59.986Z,955.51
2022-08-05T05:58:01.946Z,955.73
2022-08-05T06:01:02.525Z,955.99
2022-08-05T06:04:01.861Z,956.07
2022-08-05T06:06:58.745Z,956.19
2022-08-05T06:10:00.585Z,956.27
2022-08-05T06:12:59.276Z,956.32
2022-08-05T06:16:29.496Z,956.54
2022-08-05T06:19:00.056Z,956.44
2022-08-05T06:21:58.887Z,956.49
2022-08-05T06:24:59.490Z,956.5
2022-08-05T06:28:10.501Z,956.58
2022-08-05T06:31:00.042Z,956.61
2022-08-05T06:34:07.157Z,956.54
2022-08-05T06:36:58.927Z,956.63
2022-08-05T06:39:59.197Z,956.77
2022-08-05T06:42:58.267Z,956.7
2022-08-05T06:46:04.075Z,956.69
2022-08-05T06:48:59.700Z,956.69
2022-08-05T06:51:59.228Z,956.61
2022-08-05T06:54:58.504Z,956.51
2022-08-05T06:58:11.805Z,956.54
2022-08-05T07:00:58.923Z,956.55
2022-08-05T07:03:59.250Z,956.55
2022-08-05T07:06:58.995Z,956.67
2022-08-05T07:09:59.914Z,956.66
2022-08-05T07:12:59.556Z,956.63
2022-08-05T07:16:01.949Z,956.73
2022-08-05T07:18:58.728Z,956.83
2022-08-05T07:22:00.950Z,956.91
2022-08-05T07:24:59.193Z,956.86
2022-08-05T07:28:04.194Z,956.88
2022-08-05T07:30:59.030Z,956.94
2022-08-05T07:33:59.832Z,956.82
2022-08-05T07:36:59.371Z,956.75
2022-08-05T07:40:26.028Z,956.84
2022-08-05T07:42:58.524Z,956.85
2022-08-05T07:45:59.314Z,956.69
2022-08-05T07:49:02.503Z,956.68
2022-08-05T07:51:59.720Z,956.68
2022-08-05T07:54:58.439Z,956.68
2022-08-05T07:58:02.973Z,956.78
2022-08-05T08:00:59.250Z,956.73
2022-08-05T08:03:58.830Z,956.66
2022-08-05T08:06:58.959Z,956.73
2022-08-05T08:10:00.345Z,956.66
2022-08-05T08:12:58.927Z,956.71
2022-08-05T08:16:49.871Z,956.79
2022-08-05T08:18:59.398Z,956.79
2022-08-05T08:21:58.929Z,956.97
2022-08-05T08:25:03.509Z,956.9
2022-08-05T08:27:58.981Z,957.01
2022-08-05T08:30:58.867Z,956.98
2022-08-05T08:33:58.541Z,957.06
2022-08-05T08:37:04.679Z,956.98
2022-08-05T08:39:59.136Z,957.01
2022-08-05T08:44:54.620Z,956.94
2022-08-05T08:45:58.583Z,956.95
2022-08-05T08:49:17.487Z,957.0
2022-08-05T08:52:04.407Z,957.0
2022-08-05T08:54:58.481Z,957.07
2022-08-05T08:57:58.661Z,957.01
2022-08-05T09:00:59.798Z,957.11
2022-08-05T09:03:58.487Z,957.09
2022-08-05T09:06:59.234Z,957.09
2022-08-05T09:09:59.655Z,957.01
2022-08-05T09:13:04.500Z,956.93
2022-08-05T09:15:59.465Z,957.07
2022-08-05T09:18:59.688Z,957.04
2022-08-05T09:22:22.686Z,957.04
2022-08-05T09:24:58.923Z,957.01
2022-08-05T09:28:05.018Z,957.03
2022-08-05T09:30:59.196Z,956.98
2022-08-05T09:33:58.780Z,957.01
2022-08-05T09:36:59.341Z,956.98
2022-08-05T09:39:58.894Z,957.01
2022-08-05T09:42:58.755Z,956.95
2022-08-05T09:46:07.136Z,956.85
2022-08-05T09:49:08.158Z,956.87
2022-08-05T09:51:58.680Z,956.84
2022-08-05T09:54:59.207Z,956.76
2022-08-05T09:58:00.037Z,956.72
2022-08-05T10:00:59.546Z,956.79
2022-08-05T10:03:59.802Z,956.67
2022-08-05T10:07:01.499Z,956.69
2022-08-05T10:10:13.761Z,956.78
2022-08-05T10:12:58.567Z,956.63
2022-08-05T10:15:59.364Z,956.63
2022-08-05T10:18:58.893Z,956.54
2022-08-05T10:21:58.644Z,956.59
2022-08-05T10:24:58.889Z,956.48
2022-08-05T10:28:16.645Z,956.44
2022-08-05T10:32:49.511Z,956.32
2022-08-05T10:33:59.084Z,956.35
2022-08-05T10:36:58.285Z,956.43
2022-08-05T10:40:16.786Z,956.44
2022-08-05T10:42:58.700Z,956.32
2022-08-05T10:46:06.784Z,956.46
2022-08-05T10:49:01.518Z,956.44
2022-08-05T10:52:00.219Z,956.54
2022-08-05T10:54:59.029Z,956.48
2022-08-05T10:57:59.111Z,956.62
2022-08-05T11:01:03.101Z,956.67
2022-08-05T11:04:16.297Z,956.62
2022-08-05T11:06:59.066Z,956.56
2022-08-05T11:10:03.971Z,956.62
2022-08-05T11:12:59.024Z,956.56
2022-08-05T11:16:00.155Z,956.49
2022-08-05T11:18:58.860Z,956.52
2022-08-05T11:21:59.291Z,956.53
2022-08-05T11:26:02.947Z,956.48
2022-08-05T11:28:00.537Z,956.48
2022-08-05T11:30:58.904Z,956.56
2022-08-05T11:33:59.156Z,956.45
2022-08-05T11:36:59.241Z,956.53
2022-08-05T11:40:03.127Z,956.53
2022-08-05T11:42:59.000Z,956.56
2022-08-05T11:46:15.108Z,956.51
2022-08-05T11:48:59.407Z,956.5
2022-08-05T11:51:58.915Z,956.47
2022-08-05T11:54:58.981Z,956.57
2022-08-05T11:58:09.905Z,956.48
2022-08-05T12:00:58.878Z,956.47
2022-08-05T12:03:59.417Z,956.48
2022-08-05T12:06:59.541Z,956.42
2022-08-05T12:10:01.943Z,956.44
2022-08-05T12:12:59.734Z,956.42
2022-08-05T12:15:58.908Z,956.42
2022-08-05T12:18:59.268Z,956.33
2022-08-05T12:21:58.671Z,956.29
2022-08-05T12:24:58.848Z,956.43
2022-08-05T12:27:58.560Z,956.32
2022-08-05T12:31:01.904Z,956.26
2022-08-05T12:33:59.169Z,956.23
2022-08-05T12:36:59.322Z,956.19
2022-08-05T12:40:03.586Z,956.16
2022-08-05T12:42:59.240Z,956.26
2022-08-05T12:45:59.974Z,956.17
2022-08-05T12:48:58.872Z,956.17
2022-08-05T12:52:12.322Z,956.17
2022-08-05T12:54:58.731Z,956.14
2022-08-05T12:58:39.001Z,956.13
2022-08-05T13:02:01.160Z,956.09
2022-08-05T13:03:59.354Z,956.05
2022-08-05T13:07:00.127Z,955.99
2022-08-05T13:09:59.874Z,956.01
2022-08-05T13:12:58.774Z,955.98
2022-08-05T13:15:59.342Z,955.98
2022-08-05T13:18:59.233Z,955.98
2022-08-05T13:21:59.889Z,955.82
2022-08-05T13:25:00.637Z,955.88
2022-08-05T13:27:59.420Z,955.79
2022-08-05T13:30:59.864Z,955.68
2022-08-05T13:34:24.931Z,955.63
2022-08-05T13:36:59.618Z,955.67
2022-08-05T13:40:15.992Z,955.63
2022-08-05T13:42:59.089Z,955.61
2022-08-05T13:45:59.559Z,955.68
2022-08-05T13:49:00.750Z,955.6
2022-08-05T13:51:59.168Z,955.48
2022-08-05T13:54:59.319Z,955.5
2022-08-05T13:57:58.693Z,955.47
2022-08-05T14:00:59.259Z,955.42
2022-08-05T14:04:07.019Z,955.55
2022-08-05T14:06:58.660Z,955.48
2022-08-05T14:09:58.726Z,955.45
2022-08-05T14:12:59.519Z,955.51
2022-08-05T14:16:05.084Z,955.61
2022-08-05T14:18:59.047Z,955.41
2022-08-05T14:22:10.351Z,955.48
2022-08-05T14:24:59.585Z,955.39
2022-08-05T14:27:58.986Z,955.39
2022-08-05T14:31:00.796Z,955.44
2022-08-05T14:34:00.871Z,955.39
2022-08-05T14:36:59.442Z,955.5
2022-08-05T14:39:59.941Z,955.43
2022-08-05T14:42:59.272Z,955.47
2022-08-05T14:45:59.932Z,955.45
2022-08-05T14:48:59.700Z,955.39
2022-08-05T14:51:58.929Z,955.38
2022-08-05T14:54:59.205Z,955.48
2022-08-05T14:57:59.696Z,955.41
2022-08-05T15:01:00.318Z,955.39
2022-08-05T15:03:58.822Z,955.29
2022-08-05T15:06:59.049Z,955.24
2022-08-05T15:10:01.349Z,955.28
2022-08-05T15:13:03.630Z,955.29
2022-08-05T15:15:59.290Z,955.29
2022-08-05T15:18:58.502Z,955.32
2022-08-05T15:22:00.203Z,955.32
2022-08-05T15:24:59.483Z,955.46
2022-08-05T15:27:59.355Z,955.45
2022-08-05T15:30:59.655Z,955.43
2022-08-05T15:34:18.622Z,955.4
2022-08-05T15:37:03.480Z,955.28
2022-08-05T15:41:00.922Z,955.27
2022-08-05T15:43:09.293Z,955.25
2022-08-05T15:46:01.515Z,955.32
2022-08-05T15:49:01.476Z,955.35
2022-08-05T15:52:13.349Z,955.44
2022-08-05T15:54:59.794Z,955.5
2022-08-05T15:57:59.073Z,955.45
2022-08-05T16:01:16.716Z,955.37
2022-08-05T16:03:58.961Z,955.19
2022-08-05T16:06:58.955Z,955.4
2022-08-05T16:09:59.511Z,955.48
2022-08-05T16:12:58.747Z,955.46
2022-08-05T16:15:59.562Z,955.4
2022-08-05T16:18:59.106Z,955.37
2022-08-05T16:22:02.715Z,955.4
2022-08-05T16:24:59.190Z,955.38
2022-08-05T16:28:05.599Z,955.37
2022-08-05T16:30:58.905Z,955.43
2022-08-05T16:33:58.442Z,955.53
2022-08-05T16:36:58.830Z,955.59
2022-08-05T16:40:05.100Z,955.6
2022-08-05T16:42:58.731Z,955.72
2022-08-05T16:46:06.669Z,955.7
2022-08-05T16:48:59.037Z,955.88
2022-08-05T16:51:59.032Z,956.01
2022-08-05T16:54:58.898Z,956.09
2022-08-05T16:58:01.480Z,956.14
2022-08-05T17:00:59.442Z,956.11
2022-08-05T17:03:59.118Z,956.23
2022-08-05T17:07:00.417Z,956.21
2022-08-05T17:09:59.300Z,956.18
2022-08-05T17:12:58.791Z,956.13
2022-08-05T17:16:27.583Z,956.16
2022-08-05T17:18:58.635Z,956.27
2022-08-05T17:21:58.621Z,956.25
2022-08-05T17:25:00.161Z,956.31
2022-08-05T17:27:58.825Z,956.35
2022-08-05T17:30:59.427Z,956.42
2022-08-05T17:33:58.635Z,956.6
2022-08-05T17:36:59.477Z,956.6
2022-08-05T17:40:00.068Z,956.53
2022-08-05T17:42:58.985Z,956.64
2022-08-05T17:45:58.991Z,956.73
2022-08-05T17:48:58.552Z,956.75
2022-08-05T17:51:58.540Z,956.9
2022-08-05T17:54:59.084Z,956.97
2022-08-05T17:57:59.051Z,957.05
2022-08-05T18:01:26.772Z,956.97
2022-08-05T18:04:04.614Z,956.94
2022-08-05T18:07:01.099Z,957.0
2022-08-05T18:10:01.922Z,957.08
2022-08-05T18:12:59.035Z,957.08
2022-08-05T18:15:59.271Z,957.23
2022-08-05T18:18:59.464Z,957.15
2022-08-05T18:22:09.166Z,957.18
2022-08-05T18:24:59.151Z,957.19
2022-08-05T18:27:59.210Z,957.17
2022-08-05T18:30:59.147Z,957.11
2022-08-05T18:33:58.560Z,957.29
2022-08-05T18:36:59.270Z,957.44
2022-08-05T18:40:34.569Z,957.44
2022-08-05T18:42:59.771Z,957.36
2022-08-05T18:45:59.321Z,957.44
2022-08-05T18:48:59.008Z,957.47
2022-08-05T18:52:06.454Z,957.47
2022-08-05T18:54:59.656Z,957.59
2022-08-05T18:58:03.279Z,957.7
2022-08-05T19:00:59.849Z,957.73
2022-08-05T19:03:58.443Z,957.73
2022-08-05T19:06:59.727Z,957.84
2022-08-05T19:09:59.146Z,957.9
2022-08-05T19:12:59.040Z,957.95
2022-08-05T19:16:03.576Z,957.98
2022-08-05T19:18:59.373Z,958.03
2022-08-05T19:21:58.948Z,958.04
2022-08-05T19:24:58.790Z,958.0
2022-08-05T19:27:59.949Z,958.14
2022-08-05T19:30:59.317Z,958.16
2022-08-05T19:33:59.416Z,958.25
2022-08-05T19:36:58.988Z,958.29
2022-08-05T19:40:00.194Z,958.23
2022-08-05T19:43:05.600Z,958.2
2022-08-05T19:45:58.655Z,958.1
2022-08-05T19:49:01.043Z,958.16
2022-08-05T19:52:08.885Z,958.1
2022-08-05T19:55:00.581Z,958.15
2022-08-05T19:58:19.669Z,958.29
2022-08-05T20:00:59.112Z,958.36
2022-08-05T20:03:59.417Z,958.42
2022-08-05T20:06:58.630Z,958.42
2022-08-05T20:09:59.426Z,958.38
2022-08-05T20:12:59.283Z,958.45
2022-08-05T20:15:59.787Z,958.42
2022-08-05T20:18:59.731Z,958.44
2022-08-05T20:21:59.203Z,958.5
2022-08-05T20:24:59.281Z,958.6
2022-08-05T20:27:59.166Z,958.67
2022-08-05T20:30:59.657Z,958.71
2022-08-05T20:33:58.841Z,958.67
2022-08-05T20:36:59.022Z,958.63
2022-08-05T20:39:59.557Z,958.52
2022-08-05T20:43:00.148Z,958.48
2022-08-05T20:46:00.210Z,958.61
2022-08-05T20:48:59.728Z,958.77
2022-08-05T20:51:58.873Z,958.74
2022-08-05T20:55:56.533Z,958.89
2022-08-05T20:57:59.267Z,959.02
2022-08-05T21:00:59.730Z,959.2
2022-08-05T21:03:58.796Z,959.22
2022-08-05T21:06:58.952Z,959.26
2022-08-05T21:09:59.514Z,959.33
2022-08-05T21:13:11.037Z,959.36
2022-08-05T21:15:59.616Z,959.49
2022-08-05T21:18:59.736Z,959.39
2022-08-05T21:21:58.847Z,959.36
2022-08-05T21:24:58.908Z,959.32
2022-08-05T21:27:58.578Z,959.44
2022-08-05T21:30:59.225Z,959.57
2022-08-05T21:33:59.711Z,959.61
2022-08-05T21:36:59.131Z,959.63
2022-08-05T21:39:59.317Z,959.5
2022-08-05T21:42:59.140Z,959.53
2022-08-05T21:46:00.471Z,959.74
2022-08-05T21:48:59.848Z,959.78
2022-08-05T21:52:27.113Z,959.77
2022-08-05T21:55:06.197Z,959.82
2022-08-05T21:57:59.747Z,959.95
2022-08-05T22:00:59.123Z,960.21
2022-08-05T22:03:59.329Z,960.33
2022-08-05T22:06:58.864Z,960.45
2022-08-05T22:09:58.792Z,960.4
2022-08-05T22:13:09.334Z,960.45
2022-08-05T22:16:02.329Z,960.57
2022-08-05T22:18:58.978Z,960.7
2022-08-05T22:21:59.129Z,960.76
2022-08-05T22:24:59.010Z,960.76
2022-08-05T22:28:08.570Z,960.99
2022-08-05T22:31:05.096Z,961.18
2022-08-05T22:34:01.497Z,961.2
2022-08-05T22:36:58.870Z,961.31
2022-08-05T22:39:59.468Z,961.17
2022-08-05T22:42:58.722Z,961.18
2022-08-05T22:45:59.201Z,961.29
2022-08-05T22:48:58.542Z,961.33
2022-08-05T22:52:04.642Z,961.23
2022-08-05T22:54:59.102Z,961.34
2022-08-05T22:57:58.722Z,961.26
2022-08-05T23:00:59.195Z,961.24
2022-08-05T23:03:59.770Z,961.17
2022-08-05T23:06:58.916Z,961.3
2022-08-05T23:10:01.590Z,961.29
2022-08-05T23:12:59.282Z,961.17
2022-08-05T23:15:58.651Z,961.26
2022-08-05T23:18:58.637Z,961.28
2022-08-05T23:21:59.566Z,961.2
2022-08-05T23:24:58.743Z,961.28
2022-08-05T23:28:00.867Z,961.15
2022-08-05T23:31:16.100Z,961.26
2022-08-05T23:34:03.828Z,961.31
2022-08-05T23:36:58.625Z,961.41
2022-08-05T23:39:59.050Z,961.34
2022-08-05T23:42:59.453Z,961.27
2022-08-05T23:45:59.290Z,961.25
2022-08-05T23:49:00.256Z,961.31
2022-08-05T23:51:58.938Z,961.27
2022-08-05T23:54:59.273Z,961.31
2022-08-05T23:57:58.506Z,961.27
